createdAt,value
2018-06-02T00:01:23.522Z,23.23
2018-06-02T00:04:06.346Z,31.33
2018-06-02T00:06:38.432Z,25.03
2018-06-02T00:09:06.680Z,24.27
2018-06-02T00:11:34.862Z,25.03
2018-06-02T00:14:03.047Z,22.57
2018-06-02T00:16:31.368Z,22.60
2018-06-02T00:18:59.606Z,19.30
2018-06-02T00:21:27.757Z,18.97
2018-06-02T00:23:55.911Z,21.60
2018-06-02T00:26:24.856Z,21.00
2018-06-02T00:28:53.820Z,21.10
2018-06-02T00:31:21.995Z,16.27
2018-06-02T00:33:50.189Z,17.83
2018-06-02T00:36:18.484Z,19.27
2018-06-02T00:38:46.845Z,18.30
2018-06-02T00:41:15.199Z,17.13
2018-06-02T00:43:43.383Z,20.27
2018-06-02T00:46:11.591Z,23.40
2018-06-02T00:48:39.802Z,24.20
2018-06-02T00:51:08.736Z,27.07
2018-06-02T00:53:36.885Z,29.90
2018-06-02T00:56:05.089Z,29.77
2018-06-02T00:58:33.475Z,30.70
2018-06-02T01:01:01.738Z,35.17
2018-06-02T01:03:29.905Z,34.30
2018-06-02T01:05:58.082Z,33.83
2018-06-02T01:08:26.249Z,32.67
2018-06-02T01:10:54.661Z,37.63
2018-06-02T01:13:22.826Z,33.27
2018-06-02T01:15:51.002Z,35.90
2018-06-02T01:18:19.251Z,34.90
2018-06-02T01:20:48.769Z,37.77
2018-06-02T01:23:16.889Z,35.23
2018-06-02T01:31:44.883Z,28.90
2018-06-02T01:34:13.137Z,27.13
2018-06-02T01:36:41.387Z,22.20
2018-06-02T01:39:15.127Z,20.70
2018-06-02T01:44:34.621Z,23.53
2018-06-02T01:47:04.761Z,23.93
2018-06-02T01:52:33.467Z,23.57
2018-06-02T01:55:14.136Z,26.50
2018-06-02T01:57:42.345Z,28.77
2018-06-02T02:00:10.500Z,28.37
2018-06-02T02:02:38.681Z,26.20
2018-06-02T02:05:33.737Z,27.73
2018-06-02T02:11:39.114Z,25.67
2018-06-02T02:14:16.456Z,26.80
2018-06-02T02:16:51.123Z,25.77
2018-06-02T02:22:34.733Z,25.70
2018-06-02T02:25:04.021Z,29.70
2018-06-02T02:27:33.633Z,29.67
2018-06-02T02:37:16.340Z,37.70
2018-06-02T02:39:45.991Z,39.40
2018-06-02T02:42:19.592Z,39.77
2018-06-02T02:59:38.795Z,43.70
2018-06-02T03:05:18.691Z,50.00
2018-06-02T03:07:48.640Z,50.60
2018-06-02T03:10:41.568Z,52.50
2018-06-02T03:19:10.118Z,55.57
2018-06-02T03:21:39.702Z,56.10
2018-06-02T03:24:09.107Z,56.13
2018-06-02T03:26:37.288Z,56.40
2018-06-02T03:29:05.497Z,59.60
2018-06-02T03:31:45.994Z,57.50
2018-06-02T03:34:14.269Z,58.20
2018-06-02T03:36:44.619Z,62.20
2018-06-02T03:39:14.487Z,59.50
2018-06-02T03:42:02.636Z,63.33
2018-06-02T03:45:00.531Z,67.30
2018-06-02T03:47:52.727Z,67.87
2018-06-02T03:50:20.903Z,68.07
2018-06-02T03:52:50.661Z,73.50
2018-06-02T03:55:18.826Z,74.37
2018-06-02T03:57:47.073Z,77.67
2018-06-02T04:00:15.235Z,82.20
2018-06-02T04:02:44.271Z,81.20
2018-06-02T04:05:12.480Z,91.03
2018-06-02T04:07:40.727Z,91.70
2018-06-02T04:10:08.948Z,91.00
2018-06-02T04:12:37.916Z,99.23
2018-06-02T04:15:06.113Z,99.57
2018-06-02T04:17:35.048Z,102.17
2018-06-02T04:20:03.216Z,102.43
2018-06-02T04:22:31.382Z,104.47
2018-06-02T04:24:59.609Z,105.90
2018-06-02T04:27:27.799Z,100.97
2018-06-02T04:29:56.737Z,105.00
2018-06-02T04:32:24.895Z,108.20
2018-06-02T04:34:53.112Z,95.03
2018-06-02T04:37:21.309Z,89.70
2018-06-02T04:39:50.259Z,89.23
2018-06-02T04:42:18.467Z,89.97
2018-06-02T04:44:47.413Z,93.43
2018-06-02T04:47:15.582Z,91.30
2018-06-02T04:49:43.793Z,90.97
2018-06-02T04:52:11.948Z,94.70
2018-06-02T04:54:40.113Z,99.10
2018-06-02T04:57:08.274Z,95.63
2018-06-02T04:59:36.463Z,94.60
2018-06-02T05:02:04.631Z,108.70
2018-06-02T05:04:32.811Z,105.70
2018-06-02T05:07:00.968Z,113.30
2018-06-02T05:09:29.161Z,114.27
2018-06-02T05:11:57.324Z,119.47
2018-06-02T05:14:25.512Z,115.67
2018-06-02T05:16:53.693Z,119.17
2018-06-02T05:19:21.864Z,118.80
2018-06-02T05:21:50.050Z,115.10
2018-06-02T05:24:18.218Z,112.77
2018-06-02T05:26:47.191Z,118.40
2018-06-02T05:29:15.437Z,116.87
2018-06-02T05:31:43.561Z,117.40
2018-06-02T05:34:12.500Z,115.47
2018-06-02T05:36:40.691Z,119.07
2018-06-02T05:39:08.858Z,112.70
2018-06-02T05:41:37.074Z,111.80
2018-06-02T05:44:06.014Z,110.73
2018-06-02T05:46:34.212Z,113.50
2018-06-02T05:49:02.368Z,109.00
2018-06-02T05:51:30.578Z,113.03
2018-06-02T05:53:58.744Z,109.50
2018-06-02T05:56:26.925Z,103.00
2018-06-02T05:58:55.081Z,93.53
2018-06-02T06:01:23.273Z,78.23
2018-06-02T06:03:51.472Z,74.90
2018-06-02T06:06:19.634Z,74.60
2018-06-02T06:08:47.785Z,71.00
2018-06-02T06:11:15.956Z,66.77
2018-06-02T06:13:44.114Z,67.20
2018-06-02T06:16:12.273Z,68.40
2018-06-02T06:18:40.441Z,75.73
2018-06-02T06:21:08.615Z,74.57
2018-06-02T06:23:36.776Z,76.17
2018-06-02T06:26:04.955Z,78.00
2018-06-02T06:28:33.144Z,80.90
2018-06-02T06:31:01.319Z,66.33
2018-06-02T06:33:29.489Z,69.23
2018-06-02T06:35:57.657Z,64.70
2018-06-02T06:38:25.871Z,64.37
2018-06-02T06:40:54.860Z,59.93
2018-06-02T06:43:23.021Z,60.73
2018-06-02T06:45:52.961Z,55.97
2018-06-02T06:48:21.899Z,53.60
2018-06-02T06:50:50.089Z,53.50
2018-06-02T06:53:18.250Z,51.30
2018-06-02T06:55:46.441Z,51.97
2018-06-02T06:58:14.683Z,47.90
2018-06-02T07:00:42.847Z,47.60
2018-06-02T07:03:11.031Z,47.00
2018-06-02T07:05:39.260Z,48.80
2018-06-02T07:08:08.203Z,49.20
2018-06-02T07:10:36.382Z,46.37
2018-06-02T07:13:04.589Z,49.60
2018-06-02T07:15:33.295Z,52.00
2018-06-02T07:18:01.492Z,54.30
2018-06-02T07:20:29.650Z,54.50
2018-06-02T07:22:57.838Z,57.77
2018-06-02T07:25:26.018Z,56.60
2018-06-02T07:27:54.180Z,57.83
2018-06-02T07:30:22.349Z,57.27
2018-06-02T07:32:50.537Z,57.03
2018-06-02T07:35:18.687Z,56.97
2018-06-02T07:37:46.882Z,55.57
2018-06-02T07:40:15.933Z,55.67
2018-06-02T07:42:44.867Z,52.50
2018-06-02T07:45:13.057Z,54.37
2018-06-02T07:47:41.221Z,53.87
2018-06-02T07:50:09.441Z,59.27
2018-06-02T07:52:37.774Z,56.60
2018-06-02T07:55:05.949Z,59.17
2018-06-02T07:57:34.239Z,58.17
2018-06-02T08:00:02.446Z,51.40
2018-06-02T08:02:31.386Z,49.70
2018-06-02T08:04:59.542Z,50.33
2018-06-02T08:07:28.514Z,46.90
2018-06-02T08:09:56.813Z,51.07
2018-06-02T08:12:24.993Z,42.50
2018-06-02T08:14:53.184Z,46.33
2018-06-02T08:17:21.346Z,43.80
2018-06-02T08:19:50.294Z,44.83
2018-06-02T08:22:19.255Z,45.90
2018-06-02T08:24:47.514Z,44.60
2018-06-02T08:27:19.870Z,46.47
2018-06-02T08:29:48.391Z,43.40
2018-06-02T08:32:16.623Z,40.30
2018-06-02T08:34:44.992Z,37.97
2018-06-02T08:37:13.254Z,40.87
2018-06-02T08:39:41.566Z,38.00
2018-06-02T08:42:09.728Z,38.60
2018-06-02T08:44:39.088Z,37.53
2018-06-02T08:47:08.011Z,38.37
2018-06-02T08:49:36.237Z,38.80
2018-06-02T08:52:04.475Z,40.73
2018-06-02T08:54:32.633Z,41.97
2018-06-02T08:57:00.792Z,41.13
2018-06-02T08:59:28.953Z,41.40
2018-06-02T09:01:57.859Z,38.83
2018-06-02T09:04:26.084Z,40.03
2018-06-02T09:06:54.284Z,41.10
2018-06-02T09:09:23.233Z,41.27
2018-06-02T09:11:52.121Z,43.43
2018-06-02T09:14:20.272Z,43.60
2018-06-02T09:16:48.451Z,44.20
2018-06-02T09:19:16.673Z,44.97
2018-06-02T09:21:44.884Z,40.73
2018-06-02T09:24:13.143Z,43.63
2018-06-02T09:26:41.300Z,46.57
2018-06-02T09:29:10.249Z,40.97
2018-06-02T09:31:38.402Z,40.77
2018-06-02T09:34:06.579Z,41.13
2018-06-02T09:36:34.767Z,40.10
2018-06-02T09:39:03.033Z,36.53
2018-06-02T09:41:31.456Z,35.90
2018-06-02T09:44:00.479Z,33.37
2018-06-02T09:46:28.814Z,33.13
2018-06-02T09:48:56.979Z,33.90
2018-06-02T09:51:25.157Z,33.83
2018-06-02T09:53:53.322Z,36.17
2018-06-02T09:56:21.503Z,35.80
2018-06-02T09:58:49.723Z,36.80
2018-06-02T10:01:17.884Z,35.43
2018-06-02T10:03:46.812Z,36.83
2018-06-02T10:06:14.991Z,40.90
2018-06-02T10:08:43.173Z,42.00
2018-06-02T10:11:11.456Z,41.97
2018-06-02T10:13:39.648Z,42.03
2018-06-02T10:16:07.948Z,42.67
2018-06-02T10:18:36.912Z,41.60
2018-06-02T10:21:05.328Z,41.23
2018-06-02T10:23:38.350Z,46.10
2018-06-02T10:26:08.847Z,44.10
2018-06-02T10:28:37.397Z,45.30
2018-06-02T10:31:07.272Z,46.20
2018-06-02T10:33:35.504Z,44.10
2018-06-02T10:36:03.675Z,45.03
2018-06-02T10:38:31.829Z,42.20
2018-06-02T10:41:00.966Z,34.97
2018-06-02T10:43:29.210Z,33.27
2018-06-02T10:45:58.713Z,25.70
2018-06-02T10:48:26.981Z,24.90
2018-06-02T10:50:55.259Z,23.50
2018-06-02T10:53:25.939Z,23.00
2018-06-02T10:55:54.299Z,26.07
2018-06-02T10:58:22.509Z,25.90
2018-06-02T11:00:50.798Z,22.90
2018-06-02T11:03:18.951Z,22.30
2018-06-02T11:05:47.163Z,20.57
2018-06-02T11:08:16.091Z,23.10
2018-06-02T11:10:44.250Z,23.67
2018-06-02T11:13:13.160Z,24.63
2018-06-02T11:15:41.452Z,24.17
2018-06-02T11:18:09.671Z,22.97
2018-06-02T11:20:38.591Z,22.30
2018-06-02T11:23:06.779Z,21.40
2018-06-02T11:25:34.939Z,24.33
2018-06-02T11:28:03.100Z,20.83
2018-06-02T11:30:31.375Z,22.97
2018-06-02T11:32:59.533Z,20.90
2018-06-02T11:35:28.142Z,20.33
2018-06-02T11:37:56.313Z,19.00
2018-06-02T11:40:24.556Z,19.07
2018-06-02T11:42:53.541Z,19.30
2018-06-02T11:45:23.316Z,16.47
2018-06-02T11:47:52.103Z,15.63
2018-06-02T11:50:20.277Z,13.60
2018-06-02T11:55:52.859Z,19.17
2018-06-02T11:58:21.091Z,18.73
2018-06-02T12:01:06.680Z,20.10
2018-06-02T12:03:47.335Z,23.47
2018-06-02T12:06:31.968Z,21.67
2018-06-02T12:09:14.522Z,23.97
2018-06-02T12:15:07.820Z,22.73
2018-06-02T12:17:52.436Z,22.77
2018-06-02T12:20:46.274Z,21.40
2018-06-02T12:23:27.896Z,20.50
2018-06-02T12:26:22.516Z,22.27
2018-06-02T12:28:57.826Z,19.23
2018-06-02T12:41:15.439Z,18.00
2018-06-02T12:43:56.884Z,17.93
2018-06-02T12:49:27.003Z,15.27
2018-06-02T12:55:26.525Z,17.63
2018-06-02T12:57:57.948Z,17.70
2018-06-02T13:00:48.074Z,19.03
2018-06-02T13:03:27.042Z,20.80
2018-06-02T13:21:31.649Z,25.17
2018-06-02T13:27:20.679Z,23.93
2018-06-02T13:40:22.305Z,24.33
2018-06-02T13:49:00.128Z,22.83
2018-06-02T13:51:49.191Z,22.90
2018-06-02T13:54:23.853Z,23.93
2018-06-02T13:57:01.378Z,22.40
2018-06-02T13:59:47.435Z,24.43
2018-06-02T14:02:18.687Z,26.53
2018-06-02T14:04:50.480Z,24.50
2018-06-02T14:07:24.580Z,26.63
2018-06-02T14:09:53.511Z,25.40
2018-06-02T14:12:22.616Z,25.70
2018-06-02T14:14:54.755Z,23.53
2018-06-02T14:17:26.326Z,24.30
2018-06-02T14:19:58.974Z,24.60
2018-06-02T14:22:34.393Z,25.00
2018-06-02T14:25:02.564Z,24.60
2018-06-02T14:27:30.748Z,23.70
2018-06-02T14:29:59.679Z,24.47
2018-06-02T14:32:27.840Z,25.80
2018-06-02T14:34:56.141Z,23.83
2018-06-02T14:37:24.401Z,24.70
2018-06-02T14:39:52.606Z,25.57
2018-06-02T14:42:20.793Z,24.53
2018-06-02T14:44:49.842Z,24.70
2018-06-02T14:47:18.022Z,27.10
2018-06-02T14:49:47.254Z,26.57
2018-06-02T14:52:16.138Z,32.90
2018-06-02T14:54:44.315Z,34.87
2018-06-02T14:57:12.501Z,36.23
2018-06-02T14:59:40.684Z,36.47
2018-06-02T15:02:09.638Z,38.80
2018-06-02T15:04:37.803Z,42.17
2018-06-02T15:07:05.972Z,38.50
2018-06-02T15:09:34.161Z,38.70
2018-06-02T15:12:02.348Z,39.63
2018-06-02T15:14:30.525Z,38.77
2018-06-02T15:16:58.733Z,38.00
2018-06-02T15:19:27.722Z,35.43
2018-06-02T15:21:56.672Z,36.60
2018-06-02T15:24:24.856Z,36.13
2018-06-02T15:26:53.275Z,33.93
2018-06-02T15:41:21.065Z,34.93
2018-06-02T15:43:49.248Z,36.20
2018-06-02T15:46:39.243Z,34.97
2018-06-02T15:49:25.353Z,36.30
2018-06-02T15:55:07.437Z,37.10
2018-06-02T16:00:38.884Z,33.83
2018-06-02T16:03:20.390Z,32.20
2018-06-02T16:06:01.944Z,33.47
2018-06-02T16:11:42.451Z,33.00
2018-06-02T16:14:15.031Z,34.57
2018-06-02T16:16:44.069Z,37.90
2018-06-02T16:19:12.249Z,38.07
2018-06-02T16:21:40.783Z,36.63
2018-06-02T16:32:47.999Z,36.53
2018-06-02T16:35:16.141Z,35.63
2018-06-02T16:37:57.069Z,38.50
2018-06-02T16:40:25.327Z,36.63
2018-06-02T16:42:53.561Z,38.30
2018-06-02T16:45:21.763Z,37.30
2018-06-02T16:47:50.050Z,38.20
2018-06-02T16:50:18.239Z,38.07
2018-06-02T16:52:46.468Z,36.57
2018-06-02T16:55:14.639Z,41.90
2018-06-02T16:57:42.807Z,38.70
2018-06-02T17:00:12.817Z,40.80
2018-06-02T17:02:43.785Z,39.43
2018-06-02T17:05:11.957Z,38.03
2018-06-02T17:07:40.285Z,41.03
2018-06-02T17:10:09.249Z,42.77
2018-06-02T17:12:37.566Z,42.50
2018-06-02T17:15:06.489Z,44.50
2018-06-02T17:17:35.746Z,42.60
2018-06-02T17:20:04.139Z,44.03
2018-06-02T17:22:33.047Z,44.03
2018-06-02T17:25:01.251Z,44.00
2018-06-02T17:27:29.424Z,45.40
2018-06-02T17:29:57.640Z,45.13
2018-06-02T17:32:26.563Z,45.63
2018-06-02T17:34:54.736Z,41.50
2018-06-02T17:37:22.889Z,44.50
2018-06-02T17:39:51.196Z,45.77
2018-06-02T17:42:20.518Z,48.53
2018-06-02T17:44:48.800Z,48.53
2018-06-02T17:47:17.791Z,47.73
2018-06-02T17:49:46.150Z,47.60
2018-06-02T17:52:14.458Z,48.37
2018-06-02T17:54:42.617Z,50.27
2018-06-02T17:57:10.789Z,48.37
2018-06-02T17:59:38.964Z,50.00
2018-06-02T18:02:07.172Z,48.30
2018-06-02T18:04:36.182Z,49.93
2018-06-02T18:07:04.394Z,47.83
2018-06-02T18:09:33.213Z,48.13
2018-06-02T18:12:02.160Z,48.23
2018-06-02T18:14:30.331Z,44.03
2018-06-02T18:16:58.525Z,43.90
2018-06-02T18:19:26.746Z,45.30
2018-06-02T18:21:55.079Z,46.30
2018-06-02T18:24:23.538Z,44.43
2018-06-02T18:26:54.339Z,41.63
2018-06-02T18:29:23.846Z,47.40
2018-06-02T18:31:52.167Z,42.63
2018-06-02T18:34:21.298Z,42.70
2018-06-02T18:36:49.610Z,42.20
2018-06-02T18:39:17.816Z,42.20
2018-06-02T18:41:45.973Z,44.03
2018-06-02T18:44:14.168Z,44.23
2018-06-02T18:46:42.503Z,43.60
2018-06-02T18:49:10.665Z,41.73
2018-06-02T18:51:38.873Z,44.30
2018-06-02T18:54:10.115Z,40.17
2018-06-02T18:56:38.542Z,40.37
2018-06-02T18:59:06.902Z,40.87
2018-06-02T19:01:35.096Z,41.20
2018-06-02T19:04:04.051Z,42.30
2018-06-02T19:06:33.305Z,40.30
2018-06-02T19:09:01.605Z,40.03
2018-06-02T19:11:29.812Z,40.50
2018-06-02T19:13:58.845Z,42.40
2018-06-02T19:16:27.045Z,40.23
2018-06-02T19:18:55.318Z,41.43
2018-06-02T19:21:23.480Z,40.23
2018-06-02T19:23:51.680Z,42.80
2018-06-02T19:26:20.048Z,40.60
2018-06-02T19:28:48.921Z,40.70
2018-06-02T19:31:17.137Z,41.57
2018-06-02T19:33:45.318Z,41.50
2018-06-02T19:36:13.476Z,43.30
2018-06-02T19:38:46.866Z,42.63
2018-06-02T19:41:15.061Z,44.20
2018-06-02T19:43:43.999Z,41.80
2018-06-02T19:46:12.149Z,43.13
2018-06-02T19:48:40.332Z,45.97
2018-06-02T19:51:08.530Z,47.30
2018-06-02T19:53:36.761Z,43.93
2018-06-02T19:56:04.961Z,45.80
2018-06-02T19:58:33.443Z,46.73
2018-06-02T20:01:01.620Z,45.57
2018-06-02T20:03:29.896Z,45.47
2018-06-02T20:05:58.061Z,46.90
2018-06-02T20:08:26.223Z,46.50
2018-06-02T20:10:54.417Z,46.67
2018-06-02T20:13:22.648Z,46.90
2018-06-02T20:15:51.581Z,46.63
2018-06-02T20:18:20.523Z,46.97
2018-06-02T20:20:48.679Z,47.57
2018-06-02T20:23:16.873Z,47.67
2018-06-02T20:25:45.910Z,48.80
2018-06-02T20:28:14.151Z,49.90
2018-06-02T20:30:43.084Z,50.17
2018-06-02T20:33:11.325Z,52.60
2018-06-02T20:35:40.281Z,51.33
2018-06-02T20:38:09.430Z,51.93
2018-06-02T20:41:00.825Z,51.67
2018-06-02T20:46:28.464Z,50.93
2018-06-02T20:52:03.652Z,52.20
2018-06-02T20:54:32.478Z,48.93
2018-06-02T20:57:01.524Z,51.93
2018-06-02T20:59:43.063Z,52.00
2018-06-02T21:02:14.605Z,52.33
2018-06-02T21:07:29.522Z,50.03
2018-06-02T21:09:58.921Z,52.73
2018-06-02T21:12:27.863Z,52.37
2018-06-02T21:14:56.037Z,51.20
2018-06-02T21:17:24.975Z,48.97
2018-06-02T21:19:53.790Z,47.53
2018-06-02T21:22:22.816Z,52.37
2018-06-02T21:24:52.341Z,56.03
2018-06-02T21:27:21.060Z,50.90
2018-06-02T21:29:49.352Z,49.97
2018-06-02T21:32:18.396Z,52.43
2018-06-02T21:34:46.900Z,49.23
2018-06-02T21:37:15.085Z,51.30
2018-06-02T21:39:50.986Z,53.90
2018-06-02T21:45:12.312Z,55.73
2018-06-02T21:47:53.080Z,54.10
2018-06-02T21:50:27.435Z,52.80
2018-06-02T21:52:57.086Z,57.93
2018-06-02T21:55:25.787Z,56.77
2018-06-02T21:57:55.579Z,48.50
2018-06-02T22:00:24.714Z,54.03
2018-06-02T22:02:53.425Z,52.83
2018-06-02T22:05:21.590Z,52.80
2018-06-02T22:07:49.823Z,53.73
2018-06-02T22:10:18.001Z,54.20
2018-06-02T22:12:47.152Z,54.73
2018-06-02T22:15:15.342Z,56.03
2018-06-02T22:17:43.495Z,51.83
2018-06-02T22:20:11.682Z,53.10
2018-06-02T22:22:44.187Z,53.70
2018-06-02T22:27:54.893Z,53.57
2018-06-02T22:30:23.203Z,54.50
2018-06-02T22:32:51.453Z,49.30
2018-06-02T22:35:20.697Z,49.87
2018-06-02T22:37:49.672Z,47.37
2018-06-02T22:40:17.872Z,47.47
2018-06-02T22:42:47.003Z,50.97
2018-06-02T22:45:15.285Z,45.77
2018-06-02T22:47:45.105Z,48.63
2018-06-02T22:50:14.175Z,45.37
2018-06-02T22:52:42.489Z,43.67
2018-06-02T22:55:11.534Z,45.53
2018-06-02T22:57:39.774Z,46.10
2018-06-02T23:00:08.136Z,45.30
2018-06-02T23:02:36.378Z,43.37
2018-06-02T23:05:05.082Z,45.00
2018-06-02T23:07:33.767Z,47.27
2018-06-02T23:10:01.939Z,42.40
2018-06-02T23:12:30.176Z,47.00
2018-06-02T23:14:58.379Z,49.50
2018-06-02T23:17:26.589Z,47.90
2018-06-02T23:19:56.024Z,50.50
2018-06-02T23:22:39.504Z,51.87
2018-06-02T23:25:17.514Z,54.73
2018-06-02T23:27:52.478Z,53.97
2018-06-02T23:30:35.434Z,54.40
2018-06-02T23:33:07.484Z,54.73
2018-06-02T23:35:35.710Z,58.50
2018-06-02T23:41:26.642Z,53.43
2018-06-02T23:43:55.719Z,56.13
2018-06-02T23:46:25.025Z,57.50
2018-06-02T23:51:34.122Z,59.97
2018-06-02T23:54:02.283Z,55.87
2018-06-02T23:56:30.469Z,58.77
2018-06-02T23:58:58.633Z,61.60
